Time;durP1;ratioP1;P1;durP2;ratioP2;P2;SDS_P1;SDS_P2;PMS_P1;PMS_P2;Temp;Humidity;BMP_temperature;BMP_pressure;BME280_temperature;BME280_humidity;BME280_pressure;Samples;Min_cycle;Max_cycle;Signal;HPM_P1;HPM_P2
2023/06/28 00:00:09;;;;;;;4.30;1.52;;;16.00;99.90;;;;;;4959059;28;20058;-64
2023/06/28 00:02:42;;;;;;;3.53;1.58;;;16.00;99.90;;;;;;4957916;28;20041;-63
2023/06/28 00:05:09;;;;;;;8.65;2.20;;;16.00;99.90;;;;;;4959026;28;20577;-64
2023/06/28 00:07:36;;;;;;;6.35;1.85;;;16.00;99.90;;;;;;4959174;28;20494;-63
2023/06/28 00:10:03;;;;;;;3.38;1.52;;;16.10;99.90;;;;;;4963722;28;20054;-64
2023/06/28 00:12:30;;;;;;;5.60;1.85;;;16.00;99.90;;;;;;4961014;28;20069;-64
2023/06/28 00:14:57;;;;;;;6.85;1.88;;;15.90;99.90;;;;;;4961420;28;20085;-64
2023/06/28 00:17:27;;;;;;;7.15;1.90;;;15.90;99.90;;;;;;4958093;28;20513;-64
2023/06/28 00:20:01;;;;;;;4.85;2.00;;;15.90;99.90;;;;;;4958423;28;20035;-64
2023/06/28 00:22:30;;;;;;;6.78;2.28;;;15.90;99.90;;;;;;4954838;28;20050;-64
2023/06/28 00:24:57;;;;;;;3.17;1.58;;;15.90;99.90;;;;;;4961304;28;20026;-64
2023/06/28 00:27:23;;;;;;;2.25;1.77;;;15.90;99.90;;;;;;4962828;28;20105;-64
2023/06/28 00:29:49;;;;;;;2.45;1.70;;;15.90;99.90;;;;;;4949181;28;20522;-64
2023/06/28 00:32:15;;;;;;;4.82;1.92;;;15.80;99.90;;;;;;4943786;28;20042;-65
2023/06/28 00:34:41;;;;;;;4.60;1.45;;;15.80;99.90;;;;;;4946547;28;20065;-64
2023/06/28 00:37:07;;;;;;;5.40;1.58;;;15.80;99.90;;;;;;4960105;28;20105;-64
2023/06/28 00:39:34;;;;;;;4.80;1.95;;;15.80;99.90;;;;;;4955378;28;20028;-64
2023/06/28 00:42:01;;;;;;;6.88;2.00;;;15.80;99.90;;;;;;4952776;28;20034;-65
2023/06/28 00:44:27;;;;;;;6.72;2.40;;;15.80;99.90;;;;;;4961737;28;20040;-64
2023/06/28 00:46:55;;;;;;;4.65;1.73;;;15.80;99.90;;;;;;4959149;28;20031;-64
2023/06/28 00:49:22;;;;;;;3.47;1.77;;;15.80;99.90;;;;;;4955391;28;20049;-64
2023/06/28 00:51:49;;;;;;;3.33;1.67;;;15.80;99.90;;;;;;4955229;28;20035;-64
2023/06/28 00:54:15;;;;;;;6.85;1.80;;;15.80;99.90;;;;;;4957591;28;20479;-64
2023/06/28 00:56:42;;;;;;;2.80;1.55;;;15.80;99.90;;;;;;4963097;28;20038;-64
2023/06/28 00:59:08;;;;;;;3.97;1.65;;;15.90;99.90;;;;;;4964449;28;20041;-64
2023/06/28 01:01:35;;;;;;;5.03;2.10;;;15.80;99.90;;;;;;4942089;28;20030;-64
2023/06/28 01:04:04;;;;;;;5.00;2.00;;;15.80;99.90;;;;;;4963273;28;20869;-64
2023/06/28 01:06:35;;;;;;;6.18;2.03;;;15.80;99.90;;;;;;4958389;28;20078;-65
2023/06/28 01:09:04;;;;;;;5.50;2.15;;;15.80;99.90;;;;;;4959112;28;20026;-65
2023/06/28 01:11:34;;;;;;;5.53;1.88;;;15.80;99.90;;;;;;4956819;28;20042;-65
2023/06/28 01:14:01;;;;;;;7.35;2.60;;;15.80;99.90;;;;;;4947337;28;20073;-65
2023/06/28 01:16:27;;;;;;;7.30;2.10;;;15.80;99.90;;;;;;4954592;28;20066;-65
2023/06/28 01:18:53;;;;;;;5.22;2.10;;;15.80;99.90;;;;;;4946057;28;20469;-65
2023/06/28 01:21:22;;;;;;;3.70;1.95;;;15.80;99.90;;;;;;4959410;28;20051;-65
2023/06/28 01:23:50;;;;;;;3.53;1.92;;;15.80;99.90;;;;;;4947380;28;20027;-65
2023/06/28 01:26:16;;;;;;;3.45;1.88;;;15.80;99.90;;;;;;4957288;28;20837;-65
2023/06/28 01:28:44;;;;;;;5.72;2.13;;;15.80;99.90;;;;;;4958148;28;20042;-65
2023/06/28 01:31:11;;;;;;;5.30;2.00;;;15.80;99.90;;;;;;4956788;28;20045;-64
2023/06/28 01:33:42;;;;;;;4.18;1.70;;;15.80;99.90;;;;;;4949964;28;20046;-64
2023/06/28 01:36:09;;;;;;;7.85;2.20;;;15.80;99.90;;;;;;4963947;28;20117;-65
2023/06/28 01:38:38;;;;;;;7.60;2.15;;;15.80;99.90;;;;;;4962215;28;20051;-64
2023/06/28 01:41:05;;;;;;;4.43;1.92;;;15.80;99.90;;;;;;4940972;28;20039;-64
2023/06/28 01:43:31;;;;;;;3.47;2.05;;;15.80;99.90;;;;;;4944540;28;20035;-64
2023/06/28 01:45:58;;;;;;;3.47;1.55;;;15.80;99.90;;;;;;4939027;29;20102;-64
2023/06/28 01:48:25;;;;;;;7.95;2.42;;;15.80;99.90;;;;;;4953138;28;20035;-65
2023/06/28 01:50:51;;;;;;;8.60;2.03;;;15.80;99.90;;;;;;4939899;28;20491;-64
2023/06/28 01:53:18;;;;;;;5.40;2.00;;;15.80;99.90;;;;;;4962200;28;20126;-64
2023/06/28 01:55:45;;;;;;;7.15;2.38;;;15.80;99.90;;;;;;4965576;28;20114;-64
2023/06/28 01:58:11;;;;;;;6.15;2.30;;;15.80;99.90;;;;;;4939747;29;20110;-63
2023/06/28 02:00:37;;;;;;;5.50;1.80;;;15.70;99.90;;;;;;4964906;28;20030;-64
2023/06/28 02:03:03;;;;;;;6.43;2.25;;;15.70;99.90;;;;;;4962851;28;20490;-63
2023/06/28 02:05:29;;;;;;;3.30;1.73;;;15.70;99.90;;;;;;4956268;28;20550;-63
2023/06/28 02:07:54;;;;;;;7.10;1.98;;;15.60;99.90;;;;;;4960264;28;20062;-64
2023/06/28 02:10:23;;;;;;;7.25;2.00;;;15.70;99.90;;;;;;4960101;28;20138;-63
2023/06/28 02:12:50;;;;;;;9.48;3.03;;;15.70;99.90;;;;;;4941232;28;20609;-63
2023/06/28 02:15:18;;;;;;;7.05;1.90;;;15.70;99.90;;;;;;4961651;28;20162;-63
2023/06/28 02:17:44;;;;;;;5.88;2.17;;;15.70;99.90;;;;;;4961498;28;20517;-63
2023/06/28 02:20:12;;;;;;;7.75;2.25;;;15.70;99.90;;;;;;4957461;28;20143;-64
2023/06/28 02:22:39;;;;;;;4.80;1.70;;;15.70;99.90;;;;;;4960215;28;20027;-63
2023/06/28 02:25:06;;;;;;;4.53;1.88;;;15.60;99.90;;;;;;4959506;28;20481;-63
2023/06/28 02:27:32;;;;;;;4.20;2.20;;;15.60;99.90;;;;;;4957270;28;20102;-63
2023/06/28 02:29:57;;;;;;;5.93;2.20;;;15.60;99.90;;;;;;4966366;28;20615;-62
2023/06/28 02:32:24;;;;;;;7.68;2.03;;;15.60;99.90;;;;;;4964345;28;20035;-63
2023/06/28 02:34:50;;;;;;;6.60;2.00;;;15.50;99.90;;;;;;4961877;28;20127;-63
2023/06/28 02:37:16;;;;;;;6.03;2.30;;;15.50;99.90;;;;;;4961670;28;20130;-63
2023/06/28 02:39:42;;;;;;;4.95;2.03;;;15.50;99.90;;;;;;4945642;28;20035;-63
2023/06/28 02:42:07;;;;;;;3.72;1.90;;;15.50;99.90;;;;;;4959515;28;20035;-63
2023/06/28 02:44:36;;;;;;;5.53;2.08;;;15.50;99.90;;;;;;4957638;28;20079;-63
2023/06/28 02:47:03;;;;;;;6.15;2.08;;;15.50;99.90;;;;;;4947213;28;20083;-63
2023/06/28 02:49:30;;;;;;;5.97;2.20;;;15.50;99.90;;;;;;4946600;28;20030;-63
2023/06/28 02:51:57;;;;;;;3.60;1.85;;;15.50;99.90;;;;;;4944205;28;20031;-64
2023/06/28 02:54:23;;;;;;;4.60;2.20;;;15.50;99.90;;;;;;4959471;28;20071;-63
2023/06/28 02:56:48;;;;;;;8.80;2.20;;;15.50;99.90;;;;;;4960451;28;20031;-64
2023/06/28 02:59:17;;;;;;;8.85;2.25;;;15.50;99.90;;;;;;4956051;28;20053;-63
2023/06/28 03:01:44;;;;;;;4.90;2.17;;;15.50;99.90;;;;;;4953733;28;20829;-64
2023/06/28 03:04:12;;;;;;;9.68;2.10;;;15.50;99.90;;;;;;4948180;28;20031;-63
2023/06/28 03:06:39;;;;;;;5.43;2.20;;;15.50;99.90;;;;;;4947853;28;20031;-63
2023/06/28 03:09:05;;;;;;;3.75;2.20;;;15.60;99.90;;;;;;4963823;28;20083;-63
2023/06/28 03:11:31;;;;;;;9.40;2.40;;;15.60;99.90;;;;;;4946811;28;20035;-63
2023/06/28 03:13:57;;;;;;;8.00;2.50;;;15.70;99.90;;;;;;4941182;28;20031;-64
2023/06/28 03:16:23;;;;;;;12.70;2.90;;;15.70;99.90;;;;;;4945979;28;20491;-63
2023/06/28 03:18:49;;;;;;;8.32;2.45;;;15.80;99.90;;;;;;4938341;28;20034;-63
2023/06/28 03:21:16;;;;;;;3.63;1.95;;;15.80;99.90;;;;;;4948377;28;20043;-64
2023/06/28 03:23:41;;;;;;;8.27;2.40;;;15.90;99.90;;;;;;4956108;28;20031;-64
2023/06/28 03:26:08;;;;;;;4.93;2.25;;;15.90;99.90;;;;;;4943343;29;20140;-63
2023/06/28 03:28:34;;;;;;;5.50;2.20;;;16.00;99.90;;;;;;4962360;28;20150;-64
2023/06/28 03:31:01;;;;;;;8.45;2.22;;;16.00;99.90;;;;;;4957254;28;20035;-64
2023/06/28 03:33:27;;;;;;;5.05;1.88;;;16.00;99.90;;;;;;4956457;28;20039;-64
2023/06/28 03:35:53;;;;;;;5.18;1.95;;;16.00;99.90;;;;;;4962394;28;20026;-64
2023/06/28 03:38:18;;;;;;;8.10;2.25;;;16.10;99.90;;;;;;4956147;28;20035;-63
2023/06/28 03:40:44;;;;;;;7.30;2.10;;;16.10;99.90;;;;;;4946349;28;20045;-64
2023/06/28 03:43:10;;;;;;;6.57;2.60;;;16.10;99.90;;;;;;4943895;28;20031;-64
2023/06/28 03:45:36;;;;;;;5.68;2.03;;;16.10;99.90;;;;;;4944449;28;20035;-64
2023/06/28 03:48:02;;;;;;;4.85;1.75;;;16.20;99.90;;;;;;4941924;29;20031;-64
2023/06/28 03:50:29;;;;;;;11.68;2.20;;;16.20;99.90;;;;;;4945702;28;20483;-64
2023/06/28 03:52:54;;;;;;;3.88;2.10;;;16.20;99.90;;;;;;4959750;28;20083;-64
2023/06/28 03:55:20;;;;;;;3.55;1.90;;;16.20;99.90;;;;;;4955039;28;20051;-64
2023/06/28 03:57:46;;;;;;;4.90;2.30;;;16.20;99.90;;;;;;4961821;28;20141;-65
2023/06/28 04:00:12;;;;;;;6.97;2.70;;;16.20;99.90;;;;;;4943660;29;20480;-65
2023/06/28 04:02:44;;;;;;;4.93;2.10;;;16.30;99.90;;;;;;4961739;28;20031;-64
2023/06/28 04:05:10;;;;;;;4.05;1.80;;;16.30;99.90;;;;;;4959372;28;20031;-64
2023/06/28 04:07:36;;;;;;;6.38;2.13;;;16.30;99.90;;;;;;4957074;28;20050;-65
2023/06/28 04:10:02;;;;;;;4.47;1.75;;;16.30;99.90;;;;;;4958799;28;20023;-64
2023/06/28 04:12:28;;;;;;;8.98;2.38;;;16.30;99.90;;;;;;4955498;28;20161;-65
2023/06/28 04:14:54;;;;;;;4.28;2.00;;;16.40;99.90;;;;;;4961080;28;20547;-65
2023/06/28 04:17:20;;;;;;;8.02;2.42;;;16.40;99.90;;;;;;4963436;28;20042;-65
2023/06/28 04:19:45;;;;;;;6.60;2.35;;;16.40;99.90;;;;;;4962038;28;20728;-64
2023/06/28 04:22:11;;;;;;;8.43;2.25;;;16.40;99.90;;;;;;4961451;28;20030;-64
2023/06/28 04:24:37;;;;;;;7.57;2.10;;;16.40;99.90;;;;;;4958867;28;20034;-63
2023/06/28 04:27:03;;;;;;;9.05;2.25;;;16.50;99.90;;;;;;4959342;28;20034;-64
2023/06/28 04:29:29;;;;;;;6.18;1.98;;;16.50;99.90;;;;;;4955829;28;20141;-65
2023/06/28 04:32:02;;;;;;;6.03;2.30;;;16.50;99.90;;;;;;4947473;28;20062;-65
2023/06/28 04:34:29;;;;;;;6.28;1.85;;;16.60;99.90;;;;;;4955541;28;20031;-64
2023/06/28 04:36:57;;;;;;;11.32;2.40;;;16.60;99.90;;;;;;4960972;28;20360;-65
2023/06/28 04:39:23;;;;;;;9.60;2.17;;;16.70;99.90;;;;;;4960330;28;20038;-65
2023/06/28 04:41:48;;;;;;;7.55;2.85;;;16.70;99.90;;;;;;4956854;28;20037;-65
2023/06/28 04:44:15;;;;;;;5.20;2.13;;;16.70;99.90;;;;;;4957881;28;20050;-64
2023/06/28 04:46:44;;;;;;;5.35;2.17;;;16.80;99.90;;;;;;4957332;28;20039;-64
2023/06/28 04:49:10;;;;;;;3.95;2.00;;;16.80;99.90;;;;;;4955161;28;20039;-64
2023/06/28 04:51:36;;;;;;;6.95;2.05;;;16.80;99.90;;;;;;4962742;28;20407;-64
2023/06/28 04:54:02;;;;;;;4.50;1.90;;;16.90;99.90;;;;;;4943108;28;20037;-64
2023/06/28 04:56:28;;;;;;;4.25;1.85;;;17.00;99.90;;;;;;4958889;28;20042;-64
2023/06/28 04:58:54;;;;;;;4.93;2.05;;;17.00;99.90;;;;;;4959379;28;20803;-64
2023/06/28 05:01:20;;;;;;;4.65;2.03;;;17.00;99.90;;;;;;4957470;28;20046;-64
2023/06/28 05:03:47;;;;;;;8.63;2.13;;;17.10;99.90;;;;;;4962177;28;20083;-64
2023/06/28 05:06:13;;;;;;;9.10;2.10;;;17.10;99.90;;;;;;4954421;28;20026;-64
2023/06/28 05:08:39;;;;;;;5.80;2.05;;;17.20;99.90;;;;;;4962945;28;20031;-64
2023/06/28 05:11:07;;;;;;;7.15;2.45;;;17.30;99.90;;;;;;4963287;28;20513;-64
2023/06/28 05:13:32;;;;;;;7.80;1.85;;;17.30;99.90;;;;;;4960363;28;20063;-64
2023/06/28 05:15:58;;;;;;;4.07;1.80;;;17.40;99.90;;;;;;4960957;28;20027;-63
2023/06/28 05:18:24;;;;;;;4.05;2.00;;;17.30;99.90;;;;;;4957042;28;20042;-63
2023/06/28 05:20:50;;;;;;;7.28;1.73;;;17.40;99.90;;;;;;4958548;28;20029;-64
2023/06/28 05:23:18;;;;;;;7.05;2.20;;;17.40;99.90;;;;;;4954949;28;20059;-64
2023/06/28 05:25:44;;;;;;;6.57;2.28;;;17.40;99.90;;;;;;4960084;28;20050;-64
2023/06/28 05:28:12;;;;;;;3.08;1.50;;;17.40;99.90;;;;;;4965262;28;20022;-64
2023/06/28 05:30:38;;;;;;;4.80;1.80;;;17.40;99.90;;;;;;4964751;28;20046;-63
2023/06/28 05:33:04;;;;;;;3.75;1.55;;;17.40;99.90;;;;;;4964146;28;20045;-63
2023/06/28 05:35:34;;;;;;;8.45;2.03;;;17.40;99.90;;;;;;4961451;28;20039;-63
2023/06/28 05:38:01;;;;;;;3.72;1.60;;;17.40;99.90;;;;;;4961650;28;20030;-64
2023/06/28 05:40:28;;;;;;;5.60;1.65;;;17.40;99.90;;;;;;4957887;28;20123;-64
2023/06/28 05:42:54;;;;;;;7.47;2.08;;;17.50;99.90;;;;;;4960432;28;20023;-64
2023/06/28 05:45:21;;;;;;;6.28;2.05;;;17.50;99.90;;;;;;4966733;28;20042;-64
2023/06/28 05:47:47;;;;;;;8.50;2.00;;;17.50;99.90;;;;;;4965846;28;20027;-65
2023/06/28 05:50:15;;;;;;;4.97;1.63;;;17.60;99.90;;;;;;4964618;28;20124;-64
2023/06/28 05:52:41;;;;;;;7.35;1.88;;;17.60;99.90;;;;;;4962500;28;20035;-63
2023/06/28 05:55:07;;;;;;;2.78;1.42;;;17.70;99.90;;;;;;4961035;28;20027;-64
2023/06/28 05:57:33;;;;;;;6.53;2.00;;;17.70;99.90;;;;;;4958067;28;20046;-64
2023/06/28 05:59:58;;;;;;;6.43;1.55;;;17.80;99.90;;;;;;4963979;28;20689;-64
2023/06/28 06:02:27;;;;;;;4.97;1.52;;;17.90;99.90;;;;;;4966398;28;20050;-64
2023/06/28 06:04:53;;;;;;;4.38;1.55;;;17.90;99.90;;;;;;4959973;28;20023;-64
2023/06/28 06:07:18;;;;;;;4.22;1.90;;;18.00;99.90;;;;;;4961065;28;20482;-64
2023/06/28 06:09:44;;;;;;;5.18;1.42;;;18.00;99.90;;;;;;4962626;28;20035;-64
2023/06/28 06:12:10;;;;;;;5.90;1.95;;;18.00;99.90;;;;;;4961845;28;20058;-64
2023/06/28 06:14:36;;;;;;;6.80;2.00;;;18.10;99.90;;;;;;4960151;28;20111;-64
2023/06/28 06:17:02;;;;;;;11.55;1.83;;;18.10;99.90;;;;;;4960925;28;20027;-64
2023/06/28 06:19:27;;;;;;;4.78;1.50;;;18.20;99.90;;;;;;4966515;28;20455;-64
2023/06/28 06:21:53;;;;;;;6.25;1.58;;;18.30;99.90;;;;;;4965677;28;20042;-63
2023/06/28 06:24:19;;;;;;;7.03;2.00;;;18.30;99.90;;;;;;4962145;28;20039;-63
2023/06/28 06:26:45;;;;;;;9.05;1.63;;;18.30;99.90;;;;;;4963375;28;20038;-64
2023/06/28 06:29:10;;;;;;;5.13;2.85;;;18.40;99.90;;;;;;4961403;28;20030;-63
2023/06/28 06:31:36;;;;;;;7.03;1.95;;;18.40;99.90;;;;;;4959704;28;20154;-64
2023/06/28 06:34:03;;;;;;;4.18;1.65;;;18.50;99.90;;;;;;4963782;28;20114;-64
2023/06/28 06:36:29;;;;;;;6.78;1.67;;;18.40;99.90;;;;;;4960547;28;20031;-64
2023/06/28 06:38:56;;;;;;;5.03;1.48;;;18.40;99.90;;;;;;4963961;28;20045;-64
2023/06/28 06:41:22;;;;;;;8.05;1.88;;;18.40;99.90;;;;;;4963890;28;20035;-64
2023/06/28 06:43:49;;;;;;;4.40;1.92;;;18.50;99.90;;;;;;4957157;28;20023;-64
2023/06/28 06:46:16;;;;;;;5.03;1.50;;;18.60;99.90;;;;;;4961223;28;20031;-62
2023/06/28 06:48:42;;;;;;;6.18;1.60;;;18.70;99.90;;;;;;4960112;28;20281;-64
2023/06/28 06:51:08;;;;;;;6.43;1.52;;;18.80;99.90;;;;;;4958606;28;20047;-64
2023/06/28 06:53:34;;;;;;;8.65;1.80;;;18.90;99.90;;;;;;4956631;28;20532;-65
2023/06/28 06:55:59;;;;;;;7.75;1.77;;;19.00;99.90;;;;;;4947292;28;20018;-65
2023/06/28 06:58:28;;;;;;;8.05;1.88;;;19.10;99.90;;;;;;4958890;28;20077;-64
2023/06/28 07:00:54;;;;;;;10.68;1.92;;;19.20;99.90;;;;;;4963718;28;20036;-64
2023/06/28 07:03:19;;;;;;;2.60;1.73;;;19.30;99.90;;;;;;4962764;28;20034;-64
2023/06/28 07:05:46;;;;;;;8.98;1.70;;;19.60;99.90;;;;;;4960830;28;20027;-64
2023/06/28 07:08:11;;;;;;;9.00;1.92;;;19.70;99.90;;;;;;4958362;28;20030;-64
2023/06/28 07:10:38;;;;;;;3.60;1.30;;;19.80;99.90;;;;;;4957133;28;20039;-64
2023/06/28 07:13:03;;;;;;;4.07;1.80;;;20.00;99.90;;;;;;4966490;28;20456;-65
2023/06/28 07:15:29;;;;;;;4.15;1.38;;;20.00;99.90;;;;;;4963968;28;20126;-64
2023/06/28 07:17:55;;;;;;;2.75;1.35;;;20.10;99.90;;;;;;4963610;28;20063;-64
2023/06/28 07:20:21;;;;;;;5.78;1.30;;;20.20;99.90;;;;;;4960925;28;20035;-65
2023/06/28 07:22:48;;;;;;;4.88;1.60;;;20.30;99.90;;;;;;4961088;28;20069;-64
2023/06/28 07:25:14;;;;;;;2.33;1.27;;;20.30;99.90;;;;;;4961189;28;20041;-64
2023/06/28 07:27:39;;;;;;;4.28;1.58;;;20.30;99.90;;;;;;4958010;28;20038;-64
2023/06/28 07:30:08;;;;;;;5.90;1.38;;;20.40;99.90;;;;;;4962068;28;20039;-64
2023/06/28 07:32:34;;;;;;;3.03;1.10;;;20.50;99.90;;;;;;4964819;28;20038;-64
2023/06/28 07:35:00;;;;;;;5.35;1.40;;;20.50;99.90;;;;;;4963827;28;20785;-64
2023/06/28 07:37:26;;;;;;;5.13;1.60;;;20.50;99.70;;;;;;4938763;28;20031;-65
2023/06/28 07:39:52;;;;;;;6.57;1.65;;;20.40;99.80;;;;;;4960936;28;20023;-64
2023/06/28 07:42:20;;;;;;;5.70;1.77;;;20.50;99.50;;;;;;4957628;28;20038;-64
2023/06/28 07:44:46;;;;;;;3.90;1.42;;;20.50;99.90;;;;;;4958810;28;20105;-64
2023/06/28 07:47:12;;;;;;;4.85;1.58;;;20.50;99.20;;;;;;4958533;28;20649;-64
2023/06/28 07:49:38;;;;;;;3.20;1.25;;;20.50;98.20;;;;;;4963925;28;20027;-64
2023/06/28 07:52:05;;;;;;;3.95;1.15;;;20.40;97.80;;;;;;4963310;28;20490;-65
2023/06/28 07:54:31;;;;;;;6.90;1.27;;;20.40;98.00;;;;;;4960794;28;20035;-65
2023/06/28 07:56:56;;;;;;;6.25;1.27;;;20.40;97.90;;;;;;4962526;28;20041;-65
2023/06/28 07:59:22;;;;;;;4.82;1.50;;;20.40;98.20;;;;;;4957308;28;20035;-65
2023/06/28 08:01:49;;;;;;;6.57;1.40;;;20.40;97.80;;;;;;4958887;28;20125;-65
2023/06/28 08:04:20;;;;;;;3.08;1.77;;;20.50;97.90;;;;;;4957840;28;20035;-65
2023/06/28 08:06:46;;;;;;;6.70;1.40;;;20.60;97.10;;;;;;4964455;28;20063;-65
2023/06/28 08:09:12;;;;;;;3.42;1.25;;;20.70;97.40;;;;;;4963564;28;20554;-65
2023/06/28 08:11:39;;;;;;;5.28;1.65;;;20.70;97.00;;;;;;4961316;28;20071;-65
2023/06/28 08:14:05;;;;;;;4.65;1.13;;;20.80;97.00;;;;;;4963463;28;20062;-65
2023/06/28 08:16:31;;;;;;;4.07;1.40;;;20.90;96.60;;;;;;4961647;28;20111;-65
2023/06/28 08:18:57;;;;;;;3.40;1.40;;;21.00;97.10;;;;;;4958365;28;20034;-65
2023/06/28 08:21:23;;;;;;;6.68;1.55;;;21.00;97.30;;;;;;4954845;28;20039;-65
2023/06/28 08:23:49;;;;;;;9.55;1.52;;;21.10;97.00;;;;;;4961056;28;20027;-65
2023/06/28 08:26:15;;;;;;;5.60;1.52;;;21.20;96.60;;;;;;4963873;28;20782;-64
2023/06/28 08:28:41;;;;;;;4.60;1.33;;;21.20;96.40;;;;;;4961525;28;20027;-65
2023/06/28 08:31:07;;;;;;;4.15;1.25;;;21.30;96.20;;;;;;4958835;28;20690;-65
2023/06/28 08:33:33;;;;;;;5.85;1.52;;;21.40;95.80;;;;;;4958665;28;20049;-65
2023/06/28 08:35:59;;;;;;;2.10;1.08;;;21.50;95.80;;;;;;4957835;28;20038;-64
2023/06/28 08:38:25;;;;;;;4.40;1.23;;;21.70;95.10;;;;;;4954129;28;20035;-65
2023/06/28 08:40:52;;;;;;;3.60;1.38;;;21.80;95.00;;;;;;4964443;28;20031;-65
2023/06/28 08:43:21;;;;;;;2.17;1.15;;;21.80;93.50;;;;;;4963284;28;20130;-61
2023/06/28 08:45:47;;;;;;;2.50;1.27;;;21.80;93.40;;;;;;4957011;28;20038;-64
2023/06/28 08:48:13;;;;;;;2.08;0.80;;;21.90;93.90;;;;;;4943470;28;20113;-65
2023/06/28 08:50:40;;;;;;;3.72;1.40;;;22.00;93.70;;;;;;4955574;28;20042;-64
2023/06/28 08:53:10;;;;;;;4.90;0.90;;;22.00;92.70;;;;;;4956910;28;20515;-65
2023/06/28 08:55:41;;;;;;;2.28;1.02;;;22.10;93.10;;;;;;4955562;28;20035;-65
2023/06/28 08:58:07;;;;;;;4.95;1.45;;;22.20;92.00;;;;;;4952604;28;20495;-65
2023/06/28 09:00:33;;;;;;;5.07;1.33;;;22.20;92.30;;;;;;4955375;28;20027;-65
2023/06/28 09:03:01;;;;;;;4.13;1.10;;;22.40;92.80;;;;;;4957535;28;20097;-65
2023/06/28 09:05:27;;;;;;;4.68;1.00;;;22.50;93.20;;;;;;4961046;28;20038;-65
2023/06/28 09:07:56;;;;;;;2.13;1.05;;;22.60;91.30;;;;;;4963795;28;20086;-64
2023/06/28 09:10:23;;;;;;;2.78;1.40;;;22.60;91.30;;;;;;4960580;28;20019;-64
2023/06/28 09:12:49;;;;;;;2.40;1.08;;;22.70;91.70;;;;;;4961017;28;20087;-65
2023/06/28 09:15:20;;;;;;;5.38;1.40;;;22.70;91.20;;;;;;4947843;28;20406;-65
2023/06/28 09:17:46;;;;;;;3.97;1.52;;;22.80;91.30;;;;;;4966219;28;20035;-65
2023/06/28 09:20:20;;;;;;;3.50;1.27;;;22.90;91.00;;;;;;4965099;28;20035;-65
2023/06/28 09:22:59;;;;;;;3.30;1.60;;;22.90;91.00;;;;;;4963172;28;20039;-65
2023/06/28 09:25:27;;;;;;;1.92;1.02;;;23.00;90.80;;;;;;4961302;28;20035;-64
2023/06/28 09:27:57;;;;;;;8.13;1.50;;;23.00;90.60;;;;;;4961393;28;20038;-65
2023/06/28 09:30:41;;;;;;;3.65;1.20;;;23.10;88.80;;;;;;4959893;28;20066;-65
2023/06/28 09:33:07;;;;;;;4.63;1.25;;;23.20;88.00;;;;;;4965613;28;20482;-65
2023/06/28 09:35:36;;;;;;;1.73;0.95;;;23.20;87.00;;;;;;4965850;28;20062;-65
2023/06/28 09:38:07;;;;;;;3.65;1.13;;;23.20;86.20;;;;;;4966099;28;20102;-65
2023/06/28 09:40:36;;;;;;;6.70;1.60;;;23.20;87.40;;;;;;4962073;28;20043;-65
2023/06/28 09:43:02;;;;;;;4.65;1.50;;;23.30;86.40;;;;;;4962590;28;20030;-65
2023/06/28 09:45:31;;;;;;;3.90;1.40;;;23.40;88.30;;;;;;4959355;28;20046;-65
2023/06/28 09:48:02;;;;;;;4.55;1.20;;;23.40;88.20;;;;;;4959731;28;20039;-65
2023/06/28 09:50:40;;;;;;;5.85;2.40;;;23.50;84.70;;;;;;4965018;28;20031;-66
2023/06/28 09:53:19;;;;;;;3.20;1.08;;;23.50;85.70;;;;;;4947344;28;20027;-66
2023/06/28 09:55:47;;;;;;;8.35;2.08;;;23.40;85.80;;;;;;4948421;28;20686;-66
2023/06/28 09:58:23;;;;;;;4.55;1.50;;;23.40;85.60;;;;;;4945597;28;20054;-65
2023/06/28 10:00:50;;;;;;;3.08;1.40;;;23.30;83.90;;;;;;4961460;28;20053;-65
2023/06/28 10:03:20;;;;;;;2.17;1.30;;;23.20;83.30;;;;;;4962542;28;20214;-66
2023/06/28 10:05:46;;;;;;;3.42;1.45;;;23.10;84.60;;;;;;4960675;28;20134;-65
2023/06/28 10:08:16;;;;;;;3.13;1.42;;;23.00;83.80;;;;;;4960451;28;20300;-66
2023/06/28 10:10:46;;;;;;;4.00;1.23;;;23.00;86.20;;;;;;4965821;28;20815;-66
2023/06/28 10:13:18;;;;;;;6.50;1.85;;;23.10;85.70;;;;;;4964914;28;20764;-65
2023/06/28 10:15:47;;;;;;;4.88;2.10;;;23.10;86.00;;;;;;4961844;28;20035;-66
2023/06/28 10:18:15;;;;;;;4.75;2.13;;;23.20;86.20;;;;;;4961427;28;20030;-65
2023/06/28 10:20:41;;;;;;;2.38;1.60;;;23.20;85.40;;;;;;4960535;28;20046;-66
2023/06/28 10:23:13;;;;;;;3.83;1.63;;;23.20;83.50;;;;;;4959424;28;20529;-66
2023/06/28 10:25:44;;;;;;;1.98;1.60;;;23.20;81.90;;;;;;4944108;28;20035;-66
2023/06/28 10:28:12;;;;;;;1.88;1.20;;;23.30;85.80;;;;;;4966331;28;20691;-67
2023/06/28 10:30:40;;;;;;;6.78;2.08;;;23.40;83.10;;;;;;4964362;28;20220;-65
2023/06/28 10:33:06;;;;;;;5.38;2.38;;;23.70;82.70;;;;;;4964197;28;20030;-66
2023/06/28 10:35:32;;;;;;;4.10;2.28;;;23.70;82.80;;;;;;4962050;28;20650;-65
2023/06/28 10:37:59;;;;;;;8.23;4.30;;;23.70;84.00;;;;;;4961276;28;20135;-66
2023/06/28 10:40:25;;;;;;;4.60;2.45;;;23.90;81.30;;;;;;4957122;28;20082;-67
2023/06/28 10:42:51;;;;;;;6.10;2.58;;;24.30;80.80;;;;;;4959245;28;20816;-67
2023/06/28 10:45:30;;;;;;;4.68;2.22;;;24.50;79.70;;;;;;4962945;28;20043;-66
2023/06/28 10:47:56;;;;;;;5.68;3.17;;;24.40;78.10;;;;;;4962627;28;20030;-67
2023/06/28 10:50:23;;;;;;;3.35;1.25;;;24.30;81.20;;;;;;4964118;28;20143;-66
2023/06/28 10:52:54;;;;;;;3.80;1.10;;;24.30;80.30;;;;;;4958243;28;20023;-67
2023/06/28 10:55:21;;;;;;;3.03;1.90;;;24.40;78.70;;;;;;4960650;28;20035;-67
2023/06/28 10:58:06;;;;;;;4.97;2.53;;;24.40;78.50;;;;;;4965907;28;20207;-65
2023/06/28 11:00:44;;;;;;;2.55;1.50;;;24.80;75.10;;;;;;4956695;28;20097;-66
2023/06/28 11:03:10;;;;;;;3.97;1.42;;;25.40;77.60;;;;;;4962206;28;20038;-66
2023/06/28 11:05:56;;;;;;;7.28;1.73;;;25.50;75.20;;;;;;4958240;28;20091;-67
2023/06/28 11:08:37;;;;;;;;;;;25.30;71.80;;;;;;4955936;28;20129;-65
2023/06/28 11:11:02;;;;;;;3.50;1.23;;;25.10;76.20;;;;;;4939153;28;19914;-65
2023/06/28 11:13:32;;;;;;;1.73;0.98;;;24.80;74.30;;;;;;4957198;28;20041;-66
2023/06/28 11:16:10;;;;;;;4.95;1.05;;;24.60;73.70;;;;;;4956999;28;20590;-66
2023/06/28 11:18:37;;;;;;;5.90;1.15;;;24.50;75.80;;;;;;4960698;28;20065;-66
2023/06/28 11:21:03;;;;;;;2.83;1.20;;;24.50;72.20;;;;;;4961918;28;20037;-67
2023/06/28 11:23:34;;;;;;;3.33;0.93;;;24.40;72.90;;;;;;4964235;28;20114;-66
2023/06/28 11:26:08;;;;;;;4.20;1.27;;;24.40;74.60;;;;;;4962573;28;20523;-67
2023/06/28 11:28:35;;;;;;;3.60;1.52;;;24.30;74.40;;;;;;4959660;28;20083;-66
2023/06/28 11:31:17;;;;;;;2.75;0.90;;;24.30;74.80;;;;;;4959161;28;20037;-67
2023/06/28 11:33:44;;;;;;;5.22;1.20;;;24.30;73.90;;;;;;4958736;28;20027;-65
2023/06/28 11:36:12;;;;;;;1.98;1.05;;;24.40;74.50;;;;;;4956363;28;20134;-66
2023/06/28 11:38:39;;;;;;;2.92;1.05;;;24.50;72.60;;;;;;4959514;28;20045;-65
2023/06/28 11:41:05;;;;;;;3.80;1.20;;;24.50;72.40;;;;;;4963786;28;20487;-65
2023/06/28 11:43:31;;;;;;;4.60;1.33;;;24.50;72.00;;;;;;4955915;28;20602;-66
2023/06/28 11:45:57;;;;;;;3.38;1.00;;;24.60;74.20;;;;;;4960215;28;20031;-65
2023/06/28 11:48:23;;;;;;;5.82;1.55;;;24.60;75.00;;;;;;4956738;28;20138;-65
2023/06/28 11:50:59;;;;;;;1.98;0.90;;;24.60;72.60;;;;;;4958551;28;20035;-65
2023/06/28 11:53:26;;;;;;;2.83;0.93;;;24.60;73.60;;;;;;4954854;28;20380;-66
2023/06/28 11:55:53;;;;;;;5.00;1.25;;;24.80;72.50;;;;;;4961228;28;20114;-66
2023/06/28 11:58:33;;;;;;;6.28;1.23;;;24.80;72.80;;;;;;4960599;28;20138;-65
2023/06/28 12:01:00;;;;;;;2.05;1.27;;;24.80;68.90;;;;;;4959099;28;20432;-66
2023/06/28 12:03:37;;;;;;;3.83;1.30;;;24.80;70.30;;;;;;4958283;28;20109;-66
2023/06/28 12:06:09;;;;;;;4.88;1.30;;;24.70;70.60;;;;;;4957808;28;20097;-66
2023/06/28 12:08:40;;;;;;;4.68;1.48;;;24.60;69.10;;;;;;4957136;28;20041;-65
2023/06/28 12:11:16;;;;;;;6.05;3.40;;;24.50;71.70;;;;;;4957844;28;20089;-65
2023/06/28 12:13:43;;;;;;;17.33;10.27;;;24.50;70.70;;;;;;4959546;28;20483;-68
2023/06/28 12:16:15;;;;;;;10.70;5.07;;;24.50;71.70;;;;;;4963900;28;20464;-66
2023/06/28 12:19:03;;;;;;;10.20;3.92;;;24.60;71.40;;;;;;4959827;28;20118;-66
2023/06/28 12:21:32;;;;;;;4.43;2.60;;;24.60;74.50;;;;;;4941937;28;20175;-67
2023/06/28 12:24:20;;;;;;;3.38;2.40;;;24.70;72.00;;;;;;4958351;28;20031;-65
2023/06/28 12:26:51;;;;;;;3.45;1.75;;;24.60;71.00;;;;;;4942065;29;20097;-65
2023/06/28 12:29:21;;;;;;;5.68;2.17;;;24.60;69.00;;;;;;4961578;28;20574;-65
2023/06/28 12:32:03;;;;;;;6.35;2.30;;;24.60;71.60;;;;;;4965196;28;20224;-66
2023/06/28 12:34:31;;;;;;;4.10;2.13;;;24.70;71.70;;;;;;4958044;28;20368;-65
2023/06/28 12:37:10;;;;;;;5.88;1.55;;;24.80;69.70;;;;;;4962598;28;20038;-65
2023/06/28 12:39:41;;;;;;;2.78;1.30;;;24.80;70.20;;;;;;4963860;28;20035;-65
2023/06/28 12:42:18;;;;;;;2.47;1.02;;;25.00;68.60;;;;;;4962008;28;20038;-67
2023/06/28 12:45:01;;;;;;;5.32;1.55;;;25.00;68.90;;;;;;4959959;28;20150;-66
2023/06/28 12:47:29;;;;;;;3.65;1.13;;;24.90;69.90;;;;;;4958169;28;20039;-66
2023/06/28 12:49:56;;;;;;;2.38;1.15;;;24.80;71.10;;;;;;4968874;28;20027;-65